Terminal Aerodrome Forecast
Issued by NWS

Home | Current Version | Previous Version | Text Only | Print | Product List | Glossary On
Versions: 1 2 3 4 5 6 7 8 9 10 11 12 13 14 15 16 17 18 19 20 21 22 23 24 25 26 27 28 29 30 31 32 33 34 35 36 37 38 39 40
000
FTAK31 PANC 251139
TAFAVD
TAF
PAVD 251139Z 2512/2612 VRB03KT 6SM -SN BR SCT035 BKN050
     FM251800 VRB03KT 1/2SM SN FG VV008
     FM260000 VRB03KT 2SM -SN BR BKN015
      AMD LTD TO CLD VIS AND WIND=

USA.gov is the U.S. government's official web portal to all federal, state and local government web resources and services.